Time;durP1;ratioP1;P1;durP2;ratioP2;P2;SDS_P1;SDS_P2;PMS_P1;PMS_P2;Temp;Humidity;BMP_temperature;BMP_pressure;BME280_temperature;BME280_humidity;BME280_pressure;Samples;Min_cycle;Max_cycle;Signal;HPM_P1;HPM_P2
2022/07/11 00:01:39;;;;;;;4.57;1.80;;;;;;;;;;5026165;28;20209;-70
2022/07/11 00:04:04;;;;;;;9.43;1.77;;;;;;;;;;5023305;28;20232;-70
2022/07/11 00:06:30;;;;;;;3.28;1.67;;;;;;;;;;5024414;28;20285;-69
2022/07/11 00:08:55;;;;;;;3.95;1.38;;;;;;;;;;5022462;28;20186;-70
2022/07/11 00:11:20;;;;;;;11.50;2.10;;;;;;;;;;5029179;28;20182;-67
2022/07/11 00:13:46;;;;;;;5.68;1.90;;;;;;;;;;5029450;28;21814;-72
2022/07/11 00:16:11;;;;;;;4.50;1.40;;;;;;;;;;5020871;28;20185;-71
2022/07/11 00:18:36;;;;;;;5.13;1.90;;;;;;;;;;5029982;28;20244;-70
2022/07/11 00:21:02;;;;;;;5.80;1.95;;;;;;;;;;5021908;28;20178;-70
2022/07/11 00:23:27;;;;;;;2.55;1.60;;;;;;;;;;5016905;28;20313;-71
2022/07/11 00:25:53;;;;;;;3.92;2.00;;;;;;;;;;5025422;28;20217;-71
2022/07/11 00:28:18;;;;;;;11.35;2.10;;;;;;;;;;5022912;28;20701;-70
2022/07/11 00:30:45;;;;;;;8.95;1.95;;;;;;;;;;5018398;28;20185;-70
2022/07/11 00:33:10;;;;;;;2.83;1.65;;;;;;;;;;5015459;28;20589;-70
2022/07/11 00:35:35;;;;;;;5.07;2.33;;;;;;;;;;5026855;28;20273;-70
2022/07/11 00:38:01;;;;;;;4.88;1.85;;;;;;;;;;5026207;28;20179;-71
2022/07/11 00:40:26;;;;;;;3.63;1.73;;;;;;;;;;5021682;28;20192;-71
2022/07/11 00:42:51;;;;;;;4.70;2.00;;;;;;;;;;5022209;28;20175;-70
2022/07/11 00:45:17;;;;;;;4.80;1.80;;;;;;;;;;5025862;28;20216;-69
2022/07/11 00:47:42;;;;;;;4.00;1.70;;;;;;;;;;5029944;28;20265;-70
2022/07/11 00:50:08;;;;;;;2.88;1.75;;;;;;;;;;5027848;28;20605;-69
2022/07/11 00:52:35;;;;;;;5.40;1.60;;;;;;;;;;5028707;28;20303;-68
2022/07/11 00:55:01;;;;;;;4.57;1.65;;;;;;;;;;5030508;28;20240;-69
2022/07/11 00:57:27;;;;;;;1.75;1.50;;;;;;;;;;5028590;28;20182;-70
2022/07/11 00:59:53;;;;;;;2.58;1.50;;;;;;;;;;5016020;28;20263;-70
2022/07/11 01:02:18;;;;;;;3.70;1.50;;;;;;;;;;5031189;28;20190;-71
2022/07/11 01:04:44;;;;;;;4.82;1.75;;;;;;;;;;5028158;28;20178;-71
2022/07/11 01:07:09;;;;;;;3.45;1.63;;;;;;;;;;5029753;28;20179;-70
2022/07/11 01:09:34;;;;;;;4.63;1.92;;;;;;;;;;5021124;28;20269;-70
2022/07/11 01:12:00;;;;;;;2.85;1.50;;;;;;;;;;5038849;28;20641;-69
2022/07/11 01:14:26;;;;;;;6.32;2.25;;;;;;;;;;5021778;28;20194;-69
2022/07/11 01:16:51;;;;;;;5.20;1.55;;;;;;;;;;5024576;28;20189;-71
2022/07/11 01:19:17;;;;;;;2.70;1.75;;;;;;;;;;5017970;28;20183;-71
2022/07/11 01:21:45;;;;;;;5.57;1.60;;;;;;;;;;5030028;28;20205;-70
2022/07/11 01:24:11;;;;;;;2.65;2.00;;;;;;;;;;5031032;28;20174;-70
2022/07/11 01:26:37;;;;;;;3.40;1.45;;;;;;;;;;5026271;28;20217;-70
2022/07/11 01:29:08;;;;;;;4.47;1.42;;;;;;;;;;5021046;28;20522;-71
2022/07/11 01:31:33;;;;;;;4.45;1.70;;;;;;;;;;5020575;28;20202;-70
2022/07/11 01:33:58;;;;;;;4.10;2.03;;;;;;;;;;5022451;28;20196;-70
2022/07/11 01:36:24;;;;;;;5.32;1.73;;;;;;;;;;5018691;28;20175;-70
2022/07/11 01:38:49;;;;;;;3.85;1.58;;;;;;;;;;5020182;28;20191;-70
2022/07/11 01:41:14;;;;;;;3.03;1.60;;;;;;;;;;5037115;28;20174;-70
2022/07/11 01:43:40;;;;;;;6.13;1.70;;;;;;;;;;5020540;28;20271;-70
2022/07/11 01:46:05;;;;;;;4.30;1.70;;;;;;;;;;5029956;28;20260;-69
2022/07/11 01:48:30;;;;;;;6.30;2.08;;;;;;;;;;5029355;28;20276;-70
2022/07/11 01:50:56;;;;;;;3.10;1.65;;;;;;;;;;5030908;28;20190;-71
2022/07/11 01:53:21;;;;;;;4.65;1.83;;;;;;;;;;5036815;28;20621;-69
2022/07/11 01:55:47;;;;;;;4.47;1.90;;;;;;;;;;5026317;28;20182;-70
2022/07/11 01:58:13;;;;;;;4.80;1.90;;;;;;;;;;5025255;28;20194;-70
2022/07/11 02:00:38;;;;;;;5.45;1.55;;;;;;;;;;5029139;28;20197;-69
2022/07/11 02:03:04;;;;;;;6.90;2.63;;;;;;;;;;5026288;28;20819;-69
2022/07/11 02:05:30;;;;;;;7.45;2.08;;;;;;;;;;5028460;28;20697;-70
2022/07/11 02:08:14;;;;;;;5.68;2.17;;;;;;;;;;5023095;28;20272;-70
2022/07/11 02:10:41;;;;;;;4.30;1.90;;;;;;;;;;5020743;28;20644;-71
2022/07/11 02:13:09;;;;;;;4.55;1.80;;;;;;;;;;5030186;28;20315;-71
2022/07/11 02:15:35;;;;;;;4.88;2.05;;;;;;;;;;5028161;28;20228;-70
2022/07/11 02:18:01;;;;;;;6.43;2.42;;;;;;;;;;5029254;28;20189;-69
2022/07/11 02:20:26;;;;;;;2.63;2.08;;;;;;;;;;5011396;28;20182;-69
2022/07/11 02:22:52;;;;;;;3.72;1.95;;;;;;;;;;5026143;28;20630;-70
2022/07/11 02:25:18;;;;;;;3.30;1.92;;;;;;;;;;5026199;28;20204;-68
2022/07/11 02:27:44;;;;;;;5.07;2.55;;;;;;;;;;5020971;28;20183;-69
2022/07/11 02:30:10;;;;;;;3.78;1.60;;;;;;;;;;5016003;28;20233;-69
2022/07/11 02:32:36;;;;;;;5.30;2.25;;;;;;;;;;5033696;28;20436;-70
2022/07/11 02:35:01;;;;;;;6.47;2.28;;;;;;;;;;5023759;28;20180;-69
2022/07/11 02:37:26;;;;;;;5.40;2.60;;;;;;;;;;5026417;28;20548;-69
2022/07/11 02:39:52;;;;;;;5.22;2.08;;;;;;;;;;5029700;28;20193;-71
2022/07/11 02:42:18;;;;;;;4.57;2.22;;;;;;;;;;5023579;28;20675;-68
2022/07/11 02:44:44;;;;;;;9.18;2.60;;;;;;;;;;5024761;28;20588;-69
2022/07/11 02:47:10;;;;;;;5.38;2.83;;;;;;;;;;5025956;28;20526;-70
2022/07/11 02:49:35;;;;;;;10.55;2.80;;;;;;;;;;5024201;28;20186;-68
2022/07/11 02:52:00;;;;;;;7.28;2.90;;;;;;;;;;5021109;28;20510;-70
2022/07/11 02:54:26;;;;;;;5.00;2.75;;;;;;;;;;5025938;28;20178;-69
2022/07/11 02:56:51;;;;;;;6.13;3.00;;;;;;;;;;5023484;28;20182;-70
2022/07/11 02:59:17;;;;;;;5.35;2.55;;;;;;;;;;5025307;28;20186;-70
2022/07/11 03:01:42;;;;;;;8.20;2.92;;;;;;;;;;5021834;28;20278;-69
2022/07/11 03:04:08;;;;;;;5.78;3.20;;;;;;;;;;5025229;28;20567;-70
2022/07/11 03:06:34;;;;;;;4.93;2.70;;;;;;;;;;5015693;28;20579;-69
2022/07/11 03:08:59;;;;;;;4.75;2.95;;;;;;;;;;5023713;28;20188;-69
2022/07/11 03:11:25;;;;;;;5.78;2.38;;;;;;;;;;5011502;28;20325;-69
2022/07/11 03:13:50;;;;;;;5.30;2.40;;;;;;;;;;5016276;28;20641;-69
2022/07/11 03:16:15;;;;;;;3.60;2.58;;;;;;;;;;5020931;28;20227;-70
2022/07/11 03:18:41;;;;;;;6.53;2.40;;;;;;;;;;5018481;28;20190;-68
2022/07/11 03:21:06;;;;;;;5.32;3.10;;;;;;;;;;5014196;28;20554;-69
2022/07/11 03:23:32;;;;;;;5.00;3.20;;;;;;;;;;5013643;28;20186;-69
2022/07/11 03:25:57;;;;;;;6.82;2.75;;;;;;;;;;5018966;28;20686;-71
2022/07/11 03:28:22;;;;;;;4.93;3.20;;;;;;;;;;5016266;28;20218;-70
2022/07/11 03:30:48;;;;;;;7.88;3.03;;;;;;;;;;5036140;28;20186;-70
2022/07/11 03:33:13;;;;;;;9.15;3.67;;;;;;;;;;5023351;28;20268;-69
2022/07/11 03:35:41;;;;;;;7.43;3.28;;;;;;;;;;5018156;28;20190;-69
2022/07/11 03:38:08;;;;;;;9.85;3.70;;;;;;;;;;5017767;28;20221;-70
2022/07/11 03:40:34;;;;;;;5.32;3.13;;;;;;;;;;5016140;28;20190;-70
2022/07/11 03:42:59;;;;;;;11.48;3.70;;;;;;;;;;5026619;28;20188;-71
2022/07/11 03:45:24;;;;;;;9.13;3.25;;;;;;;;;;5024622;28;20631;-71
2022/07/11 03:47:50;;;;;;;9.00;3.47;;;;;;;;;;5038165;28;20191;-70
2022/07/11 03:50:16;;;;;;;9.13;3.97;;;;;;;;;;5028197;28;20207;-71
2022/07/11 03:52:42;;;;;;;6.57;3.03;;;;;;;;;;5017987;28;20199;-69
2022/07/11 03:55:08;;;;;;;8.02;3.35;;;;;;;;;;5033712;28;20527;-69
2022/07/11 03:57:33;;;;;;;7.82;3.42;;;;;;;;;;5019455;28;20187;-69
2022/07/11 03:59:59;;;;;;;9.02;3.67;;;;;;;;;;5015006;28;20174;-67
2022/07/11 04:02:25;;;;;;;9.43;3.35;;;;;;;;;;5011752;28;20179;-67
2022/07/11 04:04:50;;;;;;;7.85;3.28;;;;;;;;;;5017251;28;20202;-69
2022/07/11 04:07:16;;;;;;;6.75;3.13;;;;;;;;;;5018294;28;20186;-69
2022/07/11 04:09:41;;;;;;;6.57;3.45;;;;;;;;;;5027483;28;20186;-67
2022/07/11 04:12:07;;;;;;;5.82;3.05;;;;;;;;;;5027659;28;20187;-70
2022/07/11 04:14:32;;;;;;;5.90;3.85;;;;;;;;;;5037351;28;20177;-69
2022/07/11 04:16:58;;;;;;;8.15;3.60;;;;;;;;;;5027100;28;20645;-69
2022/07/11 04:19:23;;;;;;;8.30;3.67;;;;;;;;;;5025470;28;20190;-69
2022/07/11 04:21:49;;;;;;;7.13;4.00;;;;;;;;;;5014677;28;20273;-69
2022/07/11 04:24:14;;;;;;;9.55;4.68;;;;;;;;;;5025357;28;20183;-67
2022/07/11 04:26:40;;;;;;;10.88;3.70;;;;;;;;;;5022423;28;20245;-69
2022/07/11 04:29:05;;;;;;;7.38;4.15;;;;;;;;;;5038385;28;20639;-69
2022/07/11 04:31:31;;;;;;;7.40;3.75;;;;;;;;;;5015295;28;20617;-69
2022/07/11 04:33:56;;;;;;;9.43;4.30;;;;;;;;;;5008223;28;20679;-71
2022/07/11 04:36:22;;;;;;;7.53;4.13;;;;;;;;;;5027962;28;20637;-69
2022/07/11 04:38:47;;;;;;;8.65;4.53;;;;;;;;;;5034593;28;20186;-69
2022/07/11 04:41:12;;;;;;;6.45;3.80;;;;;;;;;;5037552;28;20236;-68
2022/07/11 04:43:38;;;;;;;6.97;4.50;;;;;;;;;;5030232;28;20189;-69
2022/07/11 04:46:04;;;;;;;6.07;3.90;;;;;;;;;;5038894;28;20525;-70
2022/07/11 04:48:30;;;;;;;6.03;4.07;;;;;;;;;;5044087;28;20178;-69
2022/07/11 04:50:55;;;;;;;9.80;3.83;;;;;;;;;;5038033;28;20319;-69
2022/07/11 04:53:21;;;;;;;9.18;4.45;;;;;;;;;;5042744;28;20178;-69
2022/07/11 04:55:46;;;;;;;9.45;5.10;;;;;;;;;;5036199;28;20637;-70
2022/07/11 04:58:11;;;;;;;7.22;4.38;;;;;;;;;;5044945;28;20177;-68
2022/07/11 05:00:37;;;;;;;9.50;4.30;;;;;;;;;;5044938;28;20185;-70
2022/07/11 05:03:02;;;;;;;11.35;5.03;;;;;;;;;;5033339;28;20232;-69
2022/07/11 05:05:28;;;;;;;8.30;4.57;;;;;;;;;;5025123;28;20257;-69
2022/07/11 05:07:54;;;;;;;9.82;4.18;;;;;;;;;;5029479;28;20215;-69
2022/07/11 05:10:19;;;;;;;7.43;4.32;;;;;;;;;;5029169;28;20178;-71
2022/07/11 05:12:45;;;;;;;6.55;4.07;;;;;;;;;;5028279;28;20186;-70
2022/07/11 05:15:10;;;;;;;6.32;4.05;;;;;;;;;;5036670;28;20182;-71
2022/07/11 05:17:35;;;;;;;7.38;4.50;;;;;;;;;;5022681;28;20178;-69
2022/07/11 05:20:01;;;;;;;10.55;4.25;;;;;;;;;;5025001;28;20769;-69
2022/07/11 05:22:26;;;;;;;8.45;3.72;;;;;;;;;;5027302;28;20563;-69
2022/07/11 05:24:52;;;;;;;5.65;3.58;;;;;;;;;;5022697;28;20197;-69
2022/07/11 05:27:17;;;;;;;5.43;3.28;;;;;;;;;;5028867;28;20193;-69
2022/07/11 05:29:43;;;;;;;7.28;3.47;;;;;;;;;;5027222;28;20287;-67
2022/07/11 05:32:09;;;;;;;6.32;3.50;;;;;;;;;;5035839;28;20601;-69
2022/07/11 05:34:34;;;;;;;7.53;3.13;;;;;;;;;;5036851;28;20193;-70
2022/07/11 05:37:00;;;;;;;4.75;2.65;;;;;;;;;;5039456;28;20186;-69
2022/07/11 05:39:25;;;;;;;6.82;3.17;;;;;;;;;;5046618;28;20189;-69
2022/07/11 05:41:51;;;;;;;4.70;2.63;;;;;;;;;;5037351;28;20240;-71
2022/07/11 05:44:18;;;;;;;5.35;2.55;;;;;;;;;;5030036;28;20439;-70
2022/07/11 05:46:44;;;;;;;5.93;2.63;;;;;;;;;;5038539;28;20293;-69
2022/07/11 05:49:09;;;;;;;3.75;2.40;;;;;;;;;;5043368;28;20193;-70
2022/07/11 05:51:36;;;;;;;4.07;2.33;;;;;;;;;;5037726;28;20177;-68
2022/07/11 05:54:01;;;;;;;4.47;2.00;;;;;;;;;;5040908;28;20182;-70
2022/07/11 05:56:27;;;;;;;4.88;2.30;;;;;;;;;;5039019;28;20272;-70
2022/07/11 05:58:52;;;;;;;4.15;2.10;;;;;;;;;;5038181;28;20204;-70
2022/07/11 06:01:18;;;;;;;6.95;2.30;;;;;;;;;;5031122;28;20860;-69
2022/07/11 06:03:43;;;;;;;1.52;1.30;;;;;;;;;;5038522;28;20185;-71
2022/07/11 06:06:10;;;;;;;1.98;1.20;;;;;;;;;;5040877;28;20198;-74
2022/07/11 06:08:41;;;;;;;2.58;1.23;;;;;;;;;;5035607;28;20194;-69
2022/07/11 06:11:11;;;;;;;1.67;1.20;;;;;;;;;;5036878;28;20185;-69
2022/07/11 06:13:38;;;;;;;2.75;1.50;;;;;;;;;;5037978;28;20186;-70
2022/07/11 06:16:06;;;;;;;3.00;1.55;;;;;;;;;;5030763;28;20178;-71
2022/07/11 06:18:31;;;;;;;2.33;1.48;;;;;;;;;;5032972;28;20637;-70
2022/07/11 06:20:57;;;;;;;5.07;1.30;;;;;;;;;;5038437;28;20178;-73
2022/07/11 06:23:22;;;;;;;2.00;1.40;;;;;;;;;;5024795;28;20879;-71
2022/07/11 06:25:48;;;;;;;1.83;1.45;;;;;;;;;;4337398;28;9999989;-72
2022/07/11 06:28:13;;;;;;;4.70;1.80;;;;;;;;;;5034007;28;20311;-71
2022/07/11 06:30:39;;;;;;;2.13;1.35;;;;;;;;;;5028799;28;20567;-72
2022/07/11 06:33:04;;;;;;;1.50;1.40;;;;;;;;;;5029786;28;20193;-71
2022/07/11 06:35:30;;;;;;;2.67;1.65;;;;;;;;;;5023738;28;20248;-71
2022/07/11 06:37:56;;;;;;;2.28;1.70;;;;;;;;;;5027471;28;20305;-71
2022/07/11 06:40:22;;;;;;;3.53;1.90;;;;;;;;;;5035780;28;20591;-69
2022/07/11 06:42:48;;;;;;;2.75;1.80;;;;;;;;;;5031190;28;20718;-71
2022/07/11 06:45:14;;;;;;;3.60;1.80;;;;;;;;;;5034214;28;20328;-71
2022/07/11 06:47:40;;;;;;;2.05;1.77;;;;;;;;;;5032055;28;20486;-68
2022/07/11 06:50:06;;;;;;;1.70;1.40;;;;;;;;;;5032959;28;20197;-70
2022/07/11 06:52:31;;;;;;;2.92;1.52;;;;;;;;;;5039390;28;20193;-68
2022/07/11 06:54:58;;;;;;;4.47;1.60;;;;;;;;;;5031552;28;20684;-70
2022/07/11 06:57:23;;;;;;;1.90;1.23;;;;;;;;;;5038204;28;20566;-70
2022/07/11 06:59:49;;;;;;;2.30;1.50;;;;;;;;;;5037965;28;20200;-69
2022/07/11 07:02:14;;;;;;;4.13;1.65;;;;;;;;;;5034294;28;20181;-69
2022/07/11 07:04:39;;;;;;;1.95;1.38;;;;;;;;;;5033233;28;20182;-68
2022/07/11 07:07:05;;;;;;;1.83;1.45;;;;;;;;;;5033059;28;20232;-69
2022/07/11 07:09:30;;;;;;;1.88;1.35;;;;;;;;;;5034283;28;20197;-70
2022/07/11 07:11:55;;;;;;;1.80;1.40;;;;;;;;;;5033317;28;20808;-70
2022/07/11 07:14:21;;;;;;;3.70;1.65;;;;;;;;;;5033823;28;20280;-68
2022/07/11 07:16:47;;;;;;;3.38;1.40;;;;;;;;;;5025452;28;20240;-69
2022/07/11 07:19:13;;;;;;;2.10;1.45;;;;;;;;;;5027948;28;20194;-69
2022/07/11 07:21:38;;;;;;;2.92;1.33;;;;;;;;;;5020029;28;20188;-70
2022/07/11 07:24:05;;;;;;;1.75;1.10;;;;;;;;;;5029114;28;20611;-69
2022/07/11 07:26:31;;;;;;;3.10;1.30;;;;;;;;;;5034441;28;20707;-69
2022/07/11 07:28:56;;;;;;;1.30;1.13;;;;;;;;;;5040090;28;20229;-69
2022/07/11 07:31:22;;;;;;;3.85;1.42;;;;;;;;;;5037414;28;20644;-70
2022/07/11 07:33:48;;;;;;;2.17;1.40;;;;;;;;;;5040218;28;20185;-69
2022/07/11 07:36:14;;;;;;;3.13;1.13;;;;;;;;;;5042365;28;20638;-70
2022/07/11 07:38:43;;;;;;;2.13;0.90;;;;;;;;;;5041699;28;20496;-70
2022/07/11 07:41:11;;;;;;;2.15;1.05;;;;;;;;;;5032058;28;20265;-69
2022/07/11 07:43:37;;;;;;;3.45;1.10;;;;;;;;;;5034974;28;20186;-70
2022/07/11 07:46:02;;;;;;;1.08;0.82;;;;;;;;;;5036091;28;20208;-69
2022/07/11 07:48:27;;;;;;;0.88;0.77;;;;;;;;;;5027018;28;20296;-71
2022/07/11 07:50:53;;;;;;;3.30;1.33;;;;;;;;;;5029588;28;20240;-72
2022/07/11 07:53:19;;;;;;;1.60;0.95;;;;;;;;;;5033824;28;20189;-72
2022/07/11 07:55:44;;;;;;;1.80;0.80;;;;;;;;;;5037128;28;20636;-71
2022/07/11 07:58:09;;;;;;;1.75;0.90;;;;;;;;;;5039922;28;20232;-72
2022/07/11 08:03:18;;;;;;;1.52;0.70;;;;;;;;;;5036105;28;20728;-70
2022/07/11 08:05:44;;;;;;;1.33;0.50;;;;;;;;;;5041335;28;20288;-71
2022/07/11 08:08:10;;;;;;;2.65;0.50;;;;;;;;;;5032520;28;20304;-72
2022/07/11 08:10:36;;;;;;;0.80;0.52;;;;;;;;;;5035074;28;20209;-70
2022/07/11 08:13:02;;;;;;;1.00;0.40;;;;;;;;;;5037621;28;20173;-70
2022/07/11 08:15:27;;;;;;;1.17;0.50;;;;;;;;;;5038698;28;20189;-72
2022/07/11 08:17:52;;;;;;;0.85;0.43;;;;;;;;;;5032935;28;20189;-70
2022/07/11 08:20:18;;;;;;;0.45;0.30;;;;;;;;;;5036754;28;20177;-70
2022/07/11 08:22:43;;;;;;;0.40;0.40;;;;;;;;;;5016647;28;20191;-70
2022/07/11 08:25:09;;;;;;;0.45;0.30;;;;;;;;;;5035200;28;20193;-70
2022/07/11 08:27:35;;;;;;;0.70;0.30;;;;;;;;;;5036347;28;20182;-70
2022/07/11 08:30:03;;;;;;;0.85;0.32;;;;;;;;;;5041181;28;20230;-67
2022/07/11 08:32:28;;;;;;;0.90;0.40;;;;;;;;;;5038831;28;20209;-69
2022/07/11 08:34:53;;;;;;;0.30;0.30;;;;;;;;;;5040847;28;20213;-69
2022/07/11 08:37:19;;;;;;;0.40;0.38;;;;;;;;;;5041955;28;20268;-71
2022/07/11 08:39:44;;;;;;;0.40;0.40;;;;;;;;;;5041114;28;20267;-71
2022/07/11 08:42:09;;;;;;;0.45;0.40;;;;;;;;;;5044732;28;20285;-70
2022/07/11 08:44:37;;;;;;;0.70;0.60;;;;;;;;;;5027709;28;20183;-70
2022/07/11 08:47:03;;;;;;;0.38;0.30;;;;;;;;;;5026970;28;20558;-72
2022/07/11 08:49:30;;;;;;;1.17;0.30;;;;;;;;;;5025016;28;20189;-70
2022/07/11 08:51:57;;;;;;;0.95;0.17;;;;;;;;;;5027326;28;20189;-72
2022/07/11 08:54:23;;;;;;;0.38;0.28;;;;;;;;;;5029156;28;20232;-71
2022/07/11 08:56:49;;;;;;;0.40;0.20;;;;;;;;;;5028561;28;20175;-74
2022/07/11 08:59:17;;;;;;;0.63;0.25;;;;;;;;;;5032600;28;20189;-73
2022/07/11 09:01:45;;;;;;;0.73;0.20;;;;;;;;;;5019082;28;20191;-73
2022/07/11 09:04:11;;;;;;;0.30;0.13;;;;;;;;;;5024715;28;20191;-71
2022/07/11 09:06:37;;;;;;;0.73;0.30;;;;;;;;;;5022301;28;20689;-72
2022/07/11 09:09:02;;;;;;;0.57;0.35;;;;;;;;;;5029068;28;20214;-71
2022/07/11 09:11:28;;;;;;;0.98;0.22;;;;;;;;;;5023238;28;20755;-69
2022/07/11 09:13:54;;;;;;;1.73;0.50;;;;;;;;;;5024216;28;20196;-69
2022/07/11 09:16:19;;;;;;;1.33;0.70;;;;;;;;;;5020553;28;20230;-71
2022/07/11 09:18:44;;;;;;;0.50;0.40;;;;;;;;;;5024532;28;20190;-70
2022/07/11 09:26:44;;;;;;;0.77;0.40;;;;;;;;;;5027268;28;20272;-68
2022/07/11 09:29:12;;;;;;;0.30;0.30;;;;;;;;;;5035473;28;20233;-70
2022/07/11 09:31:39;;;;;;;0.93;0.40;;;;;;;;;;5030388;28;20281;-69
2022/07/11 09:34:10;;;;;;;4.18;0.35;;;;;;;;;;5043003;28;20631;-70
2022/07/11 09:36:44;;;;;;;0.50;0.50;;;;;;;;;;5034184;28;20217;-69
2022/07/11 09:39:18;;;;;;;0.88;0.60;;;;;;;;;;5040601;28;20183;-68
2022/07/11 09:41:46;;;;;;;1.30;0.60;;;;;;;;;;5038397;28;20224;-69
2022/07/11 09:44:19;;;;;;;1.00;0.60;;;;;;;;;;5030324;28;20194;-70
2022/07/11 09:46:52;;;;;;;0.75;0.50;;;;;;;;;;5032311;28;20205;-68
2022/07/11 09:49:29;;;;;;;1.15;0.50;;;;;;;;;;5040375;28;20216;-68
2022/07/11 09:51:56;;;;;;;1.15;0.50;;;;;;;;;;5037059;28;20178;-68
2022/07/11 09:54:21;;;;;;;0.73;0.40;;;;;;;;;;5035052;28;20185;-68
2022/07/11 09:56:51;;;;;;;0.57;0.40;;;;;;;;;;5028414;28;20194;-73
2022/07/11 09:59:17;;;;;;;0.70;0.45;;;;;;;;;;5032552;28;20205;-70
2022/07/11 10:01:44;;;;;;;0.65;0.32;;;;;;;;;;5032637;28;20654;-70
2022/07/11 10:04:10;;;;;;;0.70;0.40;;;;;;;;;;5026046;28;20280;-70
2022/07/11 10:06:38;;;;;;;0.68;0.30;;;;;;;;;;5034513;28;20232;-66
2022/07/11 10:09:04;;;;;;;2.10;0.50;;;;;;;;;;5032655;28;20323;-70
2022/07/11 10:11:31;;;;;;;1.10;0.30;;;;;;;;;;5024271;28;20291;-69
2022/07/11 10:13:59;;;;;;;0.20;0.20;;;;;;;;;;5031789;28;20190;-69
2022/07/11 10:17:13;;;;;;;3.22;0.20;;;;;;;;;;5042947;28;20184;-67
2022/07/11 10:19:45;;;;;;;1.25;0.30;;;;;;;;;;5034399;28;20557;-70
2022/07/11 10:22:18;;;;;;;0.40;0.30;;;;;;;;;;5035910;28;20240;-70
2022/07/11 10:24:54;;;;;;;0.77;0.30;;;;;;;;;;5033810;28;20182;-70
2022/07/11 10:27:28;;;;;;;0.93;0.30;;;;;;;;;;5035072;28;20216;-69
2022/07/11 10:29:53;;;;;;;1.67;0.50;;;;;;;;;;5023266;28;20654;-65
2022/07/11 10:32:19;;;;;;;0.98;0.55;;;;;;;;;;5026887;28;20232;-69
2022/07/11 10:34:48;;;;;;;1.02;0.40;;;;;;;;;;5026839;28;20187;-68
2022/07/11 10:37:14;;;;;;;1.55;0.55;;;;;;;;;;5026269;28;20186;-68
2022/07/11 10:39:56;;;;;;;2.13;0.60;;;;;;;;;;5024894;28;20247;-66
2022/07/11 10:42:21;;;;;;;1.45;0.55;;;;;;;;;;5012403;28;20185;-69
2022/07/11 10:44:49;;;;;;;1.25;0.50;;;;;;;;;;5014783;28;20197;-68
2022/07/11 10:47:35;;;;;;;1.85;0.50;;;;;;;;;;5014475;28;20562;-69
2022/07/11 10:50:05;;;;;;;0.82;0.55;;;;;;;;;;5020558;28;20196;-69
2022/07/11 10:52:33;;;;;;;1.58;0.60;;;;;;;;;;5021741;28;20268;-68
2022/07/11 10:55:31;;;;;;;0.80;0.70;;;;;;;;;;5024728;28;20639;-69
2022/07/11 10:58:18;;;;;;;0.95;0.52;;;;;;;;;;5016866;28;20251;-68
2022/07/11 11:00:43;;;;;;;0.45;0.40;;;;;;;;;;5026592;28;20182;-69
2022/07/11 11:03:12;;;;;;;1.30;0.73;;;;;;;;;;5015150;28;20766;-69
2022/07/11 11:05:52;;;;;;;1.20;0.55;;;;;;;;;;5020984;28;20620;-70
2022/07/11 11:08:35;;;;;;;1.10;0.40;;;;;;;;;;5008970;28;20647;-69
2022/07/11 11:11:03;;;;;;;0.77;0.55;;;;;;;;;;5012784;28;20186;-68
2022/07/11 11:13:29;;;;;;;1.27;0.63;;;;;;;;;;5006208;28;20285;-69
2022/07/11 11:15:56;;;;;;;0.85;0.50;;;;;;;;;;5007189;28;20660;-68
2022/07/11 11:18:21;;;;;;;1.80;0.40;;;;;;;;;;5013506;28;20538;-69
2022/07/11 11:21:07;;;;;;;0.88;0.50;;;;;;;;;;5011175;28;20181;-68
2022/07/11 11:23:35;;;;;;;1.90;0.68;;;;;;;;;;5015498;28;20562;-68
2022/07/11 11:26:14;;;;;;;0.93;0.43;;;;;;;;;;5009984;28;20206;-69
2022/07/11 11:28:59;;;;;;;0.70;0.40;;;;;;;;;;5014402;28;20272;-68
2022/07/11 11:31:26;;;;;;;1.33;0.50;;;;;;;;;;5012265;28;20206;-69
2022/07/11 11:33:52;;;;;;;0.75;0.52;;;;;;;;;;5016613;28;20949;-69
2022/07/11 11:36:21;;;;;;;1.75;0.60;;;;;;;;;;5016562;28;20190;-69
2022/07/11 11:38:47;;;;;;;1.10;0.60;;;;;;;;;;5020854;28;20178;-69
2022/07/11 11:41:23;;;;;;;1.13;0.60;;;;;;;;;;5017993;28;20405;-73
2022/07/11 11:43:51;;;;;;;0.50;0.40;;;;;;;;;;5018185;28;20308;-69
2022/07/11 11:46:17;;;;;;;3.25;0.77;;;;;;;;;;5013554;28;20225;-69
2022/07/11 11:48:45;;;;;;;1.85;0.70;;;;;;;;;;5024440;28;20563;-69
2022/07/11 11:51:16;;;;;;;2.97;0.88;;;;;;;;;;5022258;28;20814;-70
2022/07/11 11:53:56;;;;;;;1.52;0.47;;;;;;;;;;5022769;28;20421;-68
2022/07/11 11:56:36;;;;;;;1.08;0.40;;;;;;;;;;5020375;28;20760;-67
2022/07/11 11:59:12;;;;;;;0.95;0.68;;;;;;;;;;5013799;28;20537;-66
2022/07/11 12:01:40;;;;;;;1.08;0.60;;;;;;;;;;5009086;28;20188;-68
2022/07/11 12:04:10;;;;;;;0.30;0.30;;;;;;;;;;5013870;28;20638;-67
2022/07/11 12:06:38;;;;;;;0.43;0.40;;;;;;;;;;5010189;28;20290;-68
2022/07/11 12:09:08;;;;;;;2.08;0.30;;;;;;;;;;5018261;28;20186;-69
2022/07/11 12:11:35;;;;;;;1.70;0.40;;;;;;;;;;5021214;28;20679;-69
2022/07/11 12:14:02;;;;;;;0.85;0.50;;;;;;;;;;5024726;28;20215;-73
2022/07/11 12:16:43;;;;;;;0.50;0.45;;;;;;;;;;5022818;28;20182;-67
2022/07/11 12:19:18;;;;;;;1.00;0.30;;;;;;;;;;5020908;28;20352;-69
2022/07/11 12:21:46;;;;;;;0.50;0.30;;;;;;;;;;5023185;28;20566;-68
2022/07/11 12:24:16;;;;;;;0.60;0.50;;;;;;;;;;5030039;28;20653;-69
2022/07/11 12:26:42;;;;;;;1.35;0.50;;;;;;;;;;5020684;28;20338;-69
2022/07/11 12:29:07;;;;;;;3.90;0.50;;;;;;;;;;5020625;28;20234;-68
2022/07/11 12:31:55;;;;;;;0.63;0.40;;;;;;;;;;5025504;28;20237;-68
2022/07/11 12:34:27;;;;;;;0.40;0.32;;;;;;;;;;5018411;28;20257;-70
2022/07/11 12:37:22;;;;;;;0.57;0.50;;;;;;;;;;5013671;28;20277;-67
2022/07/11 12:40:00;;;;;;;0.70;0.40;;;;;;;;;;5010878;28;20582;-67
2022/07/11 12:42:35;;;;;;;0.77;0.40;;;;;;;;;;5018152;28;20182;-68
2022/07/11 12:45:09;;;;;;;0.55;0.43;;;;;;;;;;5018691;28;20193;-70
2022/07/11 12:47:36;;;;;;;0.65;0.50;;;;;;;;;;5013406;28;20589;-69
2022/07/11 12:50:10;;;;;;;2.20;0.70;;;;;;;;;;5017158;28;20209;-69
2022/07/11 12:52:37;;;;;;;0.43;0.40;;;;;;;;;;5026486;28;20181;-69
2022/07/11 12:55:03;;;;;;;0.90;0.50;;;;;;;;;;5012465;28;20289;-68
2022/07/11 12:57:28;;;;;;;0.85;0.50;;;;;;;;;;5015076;28;20273;-67
2022/07/11 12:59:53;;;;;;;1.08;0.55;;;;;;;;;;5017446;28;20186;-71
2022/07/11 13:02:19;;;;;;;1.48;0.47;;;;;;;;;;5009517;28;20348;-68
2022/07/11 13:04:49;;;;;;;1.08;0.50;;;;;;;;;;5011627;28;20194;-68
2022/07/11 13:10:21;;;;;;;0.47;0.45;;;;;;;;;;5019138;28;20273;-69
2022/07/11 13:12:49;;;;;;;0.40;0.40;;;;;;;;;;5019392;28;20552;-68
2022/07/11 13:15:17;;;;;;;0.65;0.57;;;;;;;;;;5013355;28;20265;-68
2022/07/11 13:17:45;;;;;;;2.35;0.50;;;;;;;;;;5018628;28;20193;-68
2022/07/11 13:20:16;;;;;;;1.48;0.50;;;;;;;;;;5010997;28;20443;-68
2022/07/11 13:22:43;;;;;;;0.40;0.35;;;;;;;;;;5018124;28;20195;-68
2022/07/11 13:25:10;;;;;;;0.65;0.63;;;;;;;;;;5022666;28;20561;-66
2022/07/11 13:27:36;;;;;;;0.50;0.50;;;;;;;;;;5022835;28;20183;-65
2022/07/11 13:30:09;;;;;;;1.50;0.80;;;;;;;;;;5019030;28;20570;-68
2022/07/11 13:32:35;;;;;;;1.80;0.60;;;;;;;;;;5019141;28;20606;-67
2022/07/11 13:35:00;;;;;;;0.65;0.65;;;;;;;;;;5015806;28;20221;-69
2022/07/11 13:37:26;;;;;;;0.80;0.40;;;;;;;;;;5021681;28;20604;-67
2022/07/11 13:39:51;;;;;;;1.75;0.50;;;;;;;;;;5019917;28;20595;-69
2022/07/11 13:42:16;;;;;;;0.30;0.30;;;;;;;;;;5018028;28;20643;-68
2022/07/11 13:44:42;;;;;;;2.15;0.45;;;;;;;;;;5013424;28;20212;-67
2022/07/11 13:47:07;;;;;;;0.93;0.50;;;;;;;;;;5019337;28;20206;-69
2022/07/11 13:49:32;;;;;;;0.40;0.40;;;;;;;;;;5017662;28;20182;-68
2022/07/11 13:51:58;;;;;;;0.65;0.60;;;;;;;;;;5025783;28;20268;-69
2022/07/11 13:54:23;;;;;;;0.40;0.40;;;;;;;;;;5020644;28;20222;-69
2022/07/11 13:56:48;;;;;;;0.30;0.30;;;;;;;;;;5014755;28;20313;-68
2022/07/11 13:59:14;;;;;;;1.08;0.50;;;;;;;;;;5024991;28;20190;-68
2022/07/11 14:01:39;;;;;;;1.85;0.43;;;;;;;;;;5018087;28;20542;-65
2022/07/11 14:04:04;;;;;;;1.58;0.60;;;;;;;;;;5024331;28;20178;-71
2022/07/11 14:06:30;;;;;;;0.55;0.43;;;;;;;;;;5013784;28;20939;-69
2022/07/11 14:08:55;;;;;;;0.40;0.40;;;;;;;;;;5020322;28;20257;-67
2022/07/11 14:11:20;;;;;;;0.52;0.43;;;;;;;;;;5016673;28;20278;-68
2022/07/11 14:13:47;;;;;;;0.98;0.50;;;;;;;;;;5017282;28;20201;-69
2022/07/11 14:16:13;;;;;;;0.80;0.47;;;;;;;;;;5017266;28;20526;-70
2022/07/11 14:18:39;;;;;;;2.13;0.65;;;;;;;;;;5017203;28;20206;-70
2022/07/11 14:21:04;;;;;;;0.30;0.30;;;;;;;;;;5017256;28;20205;-69
2022/07/11 14:23:30;;;;;;;0.70;0.70;;;;;;;;;;5018643;28;20178;-69
2022/07/11 14:25:56;;;;;;;0.73;0.40;;;;;;;;;;5019820;28;20264;-69
2022/07/11 14:28:21;;;;;;;1.77;0.30;;;;;;;;;;5016907;28;20626;-69
2022/07/11 14:30:47;;;;;;;2.47;0.52;;;;;;;;;;5022189;28;20222;-67
2022/07/11 14:33:12;;;;;;;1.95;0.50;;;;;;;;;;5011459;28;20194;-68
2022/07/11 14:35:37;;;;;;;0.60;0.60;;;;;;;;;;5028424;28;20182;-69
2022/07/11 14:38:03;;;;;;;3.35;0.60;;;;;;;;;;5011087;28;20645;-66
2022/07/11 14:40:29;;;;;;;1.02;0.63;;;;;;;;;;5012960;28;20208;-68
2022/07/11 14:42:55;;;;;;;0.60;0.60;;;;;;;;;;5012160;28;20835;-68
2022/07/11 14:45:20;;;;;;;1.50;0.50;;;;;;;;;;5013349;28;20270;-69
2022/07/11 14:47:46;;;;;;;2.47;0.60;;;;;;;;;;5012561;28;20182;-71
2022/07/11 14:50:12;;;;;;;0.50;0.50;;;;;;;;;;5020640;28;20187;-70
2022/07/11 14:52:38;;;;;;;1.42;0.47;;;;;;;;;;5022930;28;20351;-70
2022/07/11 14:55:05;;;;;;;1.83;0.70;;;;;;;;;;5017115;28;20607;-67